Terminal Aerodrome Forecast
Issued by NWS

Home | Current Version | Previous Version | Text Only | Print | Product List | Glossary On
Versions: 1 2 3 4 5 6 7 8 9 10 11 12 13 14 15 16 17
000
FTUS42 KFFC 011122
TAFPDK
TAF
KPDK 011122Z 0112/0212 08006KT 5SM -RADZ OVC012
     FM011400 08006KT 5SM -RADZ OVC008
     FM012100 08006KT 6SM BR BKN012
     FM020300 00000KT 2SM -DZ OVC008
     FM020600 00000KT 1SM -DZ OVC004=

USA.gov is the U.S. government's official web portal to all federal, state and local government web resources and services.